Time;durP1;ratioP1;P1;durP2;ratioP2;P2;SDS_P1;SDS_P2;PMS_P1;PMS_P2;Temp;Humidity;BMP_temperature;BMP_pressure;BME280_temperature;BME280_humidity;BME280_pressure;Samples;Min_cycle;Max_cycle;Signal;HPM_P1;HPM_P2
2023/03/05 00:01:57;;;;;;;7.15;0.77;;;2.00;99.90;;;;;;5034685;28;20048;-82
2023/03/05 00:04:23;;;;;;;5.03;0.60;;;2.70;99.90;;;;;;5008531;28;20501;-83
2023/03/05 00:06:54;;;;;;;4.57;0.60;;;4.60;99.90;;;;;;5023536;28;20110;-81
2023/03/05 00:09:23;;;;;;;2.08;0.45;;;3.00;99.90;;;;;;5044102;28;20055;-83
2023/03/05 00:11:53;;;;;;;4.70;0.50;;;3.10;99.90;;;;;;5015312;28;20061;-82
2023/03/05 00:14:20;;;;;;;4.55;0.40;;;1.50;99.90;;;;;;5013567;28;20083;-82
2023/03/05 00:16:46;;;;;;;3.97;1.10;;;2.90;99.90;;;;;;5015504;28;20037;-83
2023/03/05 00:19:15;;;;;;;2.20;0.57;;;5.20;99.90;;;;;;5030987;28;20063;-84
2023/03/05 00:21:44;;;;;;;2.95;0.43;;;3.00;99.90;;;;;;5028367;28;20118;-83
2023/03/05 00:24:24;;;;;;;2.50;0.40;;;2.60;99.90;;;;;;5002880;28;20426;-81
2023/03/05 00:26:50;;;;;;;2.92;0.57;;;3.30;99.90;;;;;;5049128;28;20516;-84
2023/03/05 00:29:17;;;;;;;4.38;0.75;;;5.10;99.90;;;;;;5031338;28;20045;-84
2023/03/05 00:31:45;;;;;;;3.13;0.28;;;4.00;99.90;;;;;;5045729;28;20087;-83
2023/03/05 00:34:16;;;;;;;5.63;0.80;;;4.50;99.90;;;;;;5033219;28;20111;-88
2023/03/05 00:37:01;;;;;;;2.25;0.65;;;3.00;99.90;;;;;;5022214;28;20049;-84
2023/03/05 00:39:29;;;;;;;6.60;0.88;;;2.90;99.90;;;;;;5032230;28;20041;-85
2023/03/05 00:41:59;;;;;;;6.10;0.80;;;3.00;99.90;;;;;;5021910;28;20159;-83
2023/03/05 00:44:25;;;;;;;5.75;1.40;;;2.90;99.90;;;;;;5033238;28;20519;-82
2023/03/05 00:46:59;;;;;;;7.10;1.00;;;2.90;99.90;;;;;;5016076;28;20057;-84
2023/03/05 00:49:33;;;;;;;4.63;0.40;;;2.90;99.90;;;;;;5014359;28;20052;-86
2023/03/05 00:52:00;;;;;;;1.65;0.80;;;2.80;99.90;;;;;;5045746;28;20057;-84
2023/03/05 00:54:30;;;;;;;5.30;0.70;;;2.80;99.90;;;;;;5031036;28;20405;-86
2023/03/05 00:56:59;;;;;;;7.93;1.20;;;5.00;99.90;;;;;;5020779;28;20463;-87
2023/03/05 00:59:26;;;;;;;4.82;0.70;;;2.90;99.90;;;;;;5027995;28;20111;-87
2023/03/05 01:01:52;;;;;;;8.25;1.13;;;2.80;99.90;;;;;;5015021;28;20053;-86
2023/03/05 01:04:20;;;;;;;2.92;0.90;;;4.40;99.90;;;;;;5036043;28;20110;-88
2023/03/05 01:06:46;;;;;;;5.30;1.38;;;2.80;99.90;;;;;;5027723;28;20049;-87
2023/03/05 01:09:16;;;;;;;6.93;1.13;;;5.50;99.90;;;;;;5030581;28;20049;-88
2023/03/05 01:11:47;;;;;;;11.23;1.15;;;2.50;99.90;;;;;;5040282;28;20102;-87
2023/03/05 01:14:21;;;;;;;7.00;1.00;;;2.90;99.90;;;;;;5032169;28;20049;-87
2023/03/05 01:16:48;;;;;;;4.18;0.68;;;2.50;99.90;;;;;;5059557;28;20059;-84
2023/03/05 01:19:15;;;;;;;10.05;1.00;;;2.60;99.90;;;;;;5021488;28;20044;-83
2023/03/05 01:21:51;;;;;;;6.50;1.15;;;4.30;99.90;;;;;;5039733;28;20080;-84
2023/03/05 01:24:22;;;;;;;4.75;1.17;;;2.90;99.90;;;;;;5011648;28;20045;-84
2023/03/05 01:26:52;;;;;;;2.90;0.70;;;4.30;99.90;;;;;;5045282;28;20543;-84
2023/03/05 01:29:51;;;;;;;5.10;0.73;;;5.00;99.90;;;;;;5026302;28;20076;-84
2023/03/05 01:32:24;;;;;;;6.30;0.82;;;4.70;99.90;;;;;;5012867;28;20056;-85
2023/03/05 01:34:54;;;;;;;9.80;1.00;;;3.70;99.90;;;;;;5011253;28;20114;-82
2023/03/05 01:37:20;;;;;;;7.30;1.83;;;;;;;;;;5040922;28;20041;-84
2023/03/05 01:39:46;;;;;;;7.75;0.60;;;2.80;99.90;;;;;;5012360;28;20123;-84
2023/03/05 01:42:19;;;;;;;4.00;0.82;;;5.00;99.90;;;;;;5023579;28;20041;-82
2023/03/05 01:45:12;;;;;;;6.10;0.70;;;2.80;99.90;;;;;;5026753;28;20543;-82
2023/03/05 01:47:38;;;;;;;7.30;0.45;;;2.90;99.90;;;;;;5030557;28;20037;-82
2023/03/05 01:50:12;;;;;;;5.07;0.93;;;4.90;99.90;;;;;;5000193;28;20050;-83
2023/03/05 01:52:45;;;;;;;6.50;0.73;;;2.80;99.90;;;;;;5025065;28;20041;-82
2023/03/05 01:55:18;;;;;;;6.00;0.90;;;2.70;99.90;;;;;;5035094;28;20046;-83
2023/03/05 01:57:51;;;;;;;6.07;0.82;;;3.40;99.90;;;;;;5033451;28;20135;-84
2023/03/05 02:00:50;;;;;;;5.75;0.60;;;2.80;99.90;;;;;;5023724;28;20056;-82
2023/03/05 02:03:16;;;;;;;9.07;0.95;;;1.80;99.90;;;;;;5014644;28;20046;-80
2023/03/05 02:05:43;;;;;;;11.88;1.10;;;2.50;99.90;;;;;;5008350;28;20053;-84
2023/03/05 02:08:16;;;;;;;7.88;0.85;;;4.70;99.90;;;;;;5020285;28;20048;-83
2023/03/05 02:10:50;;;;;;;5.57;0.55;;;2.70;99.90;;;;;;5025149;28;20049;-83
2023/03/05 02:13:23;;;;;;;5.80;0.70;;;2.70;99.90;;;;;;4993449;28;20075;-84
2023/03/05 02:15:53;;;;;;;3.78;0.70;;;2.70;99.90;;;;;;5025690;28;20195;-82
2023/03/05 02:18:23;;;;;;;6.43;0.68;;;2.50;99.90;;;;;;5023800;28;20061;-85
2023/03/05 02:21:02;;;;;;;8.23;0.65;;;4.80;99.90;;;;;;5046161;28;20279;-85
2023/03/05 02:23:32;;;;;;;2.05;0.60;;;3.10;99.90;;;;;;5026344;28;20045;-82
2023/03/05 02:26:09;;;;;;;2.70;0.70;;;3.00;99.90;;;;;;5030715;28;20084;-83
2023/03/05 02:28:40;;;;;;;2.47;0.30;;;2.50;99.90;;;;;;5031820;28;20057;-84
2023/03/05 02:31:18;;;;;;;6.45;0.50;;;2.60;99.90;;;;;;5011503;28;20504;-84
2023/03/05 02:33:51;;;;;;;6.00;0.65;;;2.60;99.90;;;;;;5027295;28;20136;-85
2023/03/05 02:36:25;;;;;;;8.05;0.80;;;2.60;99.90;;;;;;5046533;28;20056;-84
2023/03/05 02:38:52;;;;;;;4.50;0.47;;;3.40;99.90;;;;;;5028155;28;20464;-84
2023/03/05 02:41:25;;;;;;;4.03;0.70;;;1.90;99.90;;;;;;5032106;28;20038;-86
2023/03/05 02:43:51;;;;;;;9.50;1.02;;;2.60;99.90;;;;;;5052676;28;20437;-84
2023/03/05 02:46:21;;;;;;;9.77;0.98;;;2.60;99.90;;;;;;4996610;28;20066;-86
2023/03/05 02:48:49;;;;;;;8.27;1.05;;;2.10;99.90;;;;;;5019034;28;20374;-87
2023/03/05 02:51:15;;;;;;;5.75;1.23;;;2.60;99.90;;;;;;4995807;28;20524;-85
2023/03/05 02:53:40;;;;;;;9.02;1.10;;;2.70;99.90;;;;;;5028071;28;20064;-85
2023/03/05 02:56:06;;;;;;;6.43;1.00;;;2.70;99.90;;;;;;5016657;28;20045;-87
2023/03/05 02:58:33;;;;;;;6.38;0.80;;;4.80;99.90;;;;;;5014281;28;20051;-87
2023/03/05 03:00:59;;;;;;;5.72;1.00;;;3.30;99.90;;;;;;5027537;28;20056;-86
2023/03/05 03:03:25;;;;;;;7.93;1.10;;;4.10;99.90;;;;;;5022611;28;20078;-85
2023/03/05 03:05:50;;;;;;;8.93;1.23;;;4.00;99.90;;;;;;5014918;28;20049;-88
2023/03/05 03:08:19;;;;;;;7.00;1.13;;;4.70;99.90;;;;;;5032925;28;20053;-85
2023/03/05 03:10:44;;;;;;;3.55;0.85;;;4.40;99.90;;;;;;4997148;28;20049;-84
2023/03/05 03:13:10;;;;;;;6.78;0.95;;;2.50;99.90;;;;;;5010334;28;20124;-87
2023/03/05 03:15:36;;;;;;;5.03;0.68;;;2.50;99.90;;;;;;5013933;28;20053;-86
2023/03/05 03:18:02;;;;;;;10.35;1.15;;;4.70;99.90;;;;;;5026247;28;20374;-85
2023/03/05 03:20:31;;;;;;;6.82;0.75;;;2.60;99.90;;;;;;5028958;28;20063;-86
2023/03/05 03:23:00;;;;;;;6.22;0.43;;;3.20;99.90;;;;;;5024561;28;20061;-87
2023/03/05 03:25:26;;;;;;;9.65;0.70;;;2.40;99.90;;;;;;5008967;28;20477;-86
2023/03/05 03:27:51;;;;;;;4.30;0.77;;;2.50;99.90;;;;;;5022875;28;20053;-87
2023/03/05 03:30:17;;;;;;;7.18;0.43;;;2.30;99.90;;;;;;5004806;28;20485;-84
2023/03/05 03:32:43;;;;;;;8.65;0.70;;;2.50;99.90;;;;;;5021777;28;20061;-84
2023/03/05 03:35:11;;;;;;;5.20;0.60;;;2.10;99.90;;;;;;5024259;28;20048;-84
2023/03/05 03:37:36;;;;;;;3.00;0.80;;;2.50;99.90;;;;;;5004889;28;20053;-83
2023/03/05 03:40:04;;;;;;;5.05;0.40;;;2.80;99.90;;;;;;4984617;28;20162;-85
2023/03/05 03:42:33;;;;;;;16.20;1.20;;;2.50;99.90;;;;;;5019341;28;20061;-84
2023/03/05 03:45:01;;;;;;;3.85;0.70;;;2.50;99.90;;;;;;5004020;28;20058;-83
2023/03/05 03:47:27;;;;;;;5.18;0.63;;;3.80;99.90;;;;;;5020921;28;20049;-84
2023/03/05 03:49:53;;;;;;;10.43;0.90;;;4.40;99.90;;;;;;5019020;28;20053;-83
2023/03/05 03:52:21;;;;;;;6.85;0.90;;;2.30;99.90;;;;;;5016273;28;20045;-83
2023/03/05 03:54:48;;;;;;;6.10;0.93;;;2.30;99.90;;;;;;5018718;28;20489;-82
2023/03/05 03:57:14;;;;;;;6.63;0.68;;;3.90;99.90;;;;;;4987180;28;20049;-83
2023/03/05 03:59:39;;;;;;;4.93;0.70;;;2.40;99.90;;;;;;4988391;28;20045;-86
2023/03/05 04:02:05;;;;;;;5.25;0.85;;;2.40;99.90;;;;;;5004415;28;20497;-83
2023/03/05 04:04:30;;;;;;;3.72;0.70;;;3.70;99.90;;;;;;5026620;28;20037;-83
2023/03/05 04:06:57;;;;;;;4.45;0.80;;;2.40;99.90;;;;;;5003696;28;20042;-83
2023/03/05 04:09:23;;;;;;;4.72;0.52;;;3.70;99.90;;;;;;5018008;28;20045;-86
2023/03/05 04:11:50;;;;;;;7.13;0.90;;;2.50;99.90;;;;;;5021266;28;20048;-85
2023/03/05 04:14:15;;;;;;;6.07;0.57;;;4.20;99.90;;;;;;4988776;28;20497;-84
2023/03/05 04:16:41;;;;;;;5.28;0.60;;;2.50;99.90;;;;;;4990488;28;20103;-84
2023/03/05 04:19:07;;;;;;;2.05;0.50;;;4.20;99.90;;;;;;5017416;28;20036;-83
2023/03/05 04:21:32;;;;;;;1.58;0.57;;;4.00;99.90;;;;;;5017191;28;20049;-85
2023/03/05 04:23:58;;;;;;;7.30;0.77;;;4.80;99.90;;;;;;4985959;28;20103;-85
2023/03/05 04:26:25;;;;;;;7.35;1.00;;;2.10;99.90;;;;;;4990440;28;20053;-85
2023/03/05 04:28:50;;;;;;;6.07;0.47;;;2.50;99.90;;;;;;5003367;28;20128;-86
2023/03/05 04:31:16;;;;;;;4.93;0.57;;;2.20;99.90;;;;;;4999946;28;20180;-86
2023/03/05 04:33:42;;;;;;;5.20;0.47;;;3.30;99.90;;;;;;4992486;28;20056;-84
2023/03/05 04:36:08;;;;;;;2.65;0.38;;;3.10;99.90;;;;;;5003702;28;20049;-84
2023/03/05 04:38:33;;;;;;;6.07;0.63;;;2.50;99.90;;;;;;5003273;28;20052;-86
2023/03/05 04:40:59;;;;;;;3.47;0.60;;;2.00;99.90;;;;;;4985490;28;20053;-85
2023/03/05 04:43:24;;;;;;;2.97;0.30;;;3.10;99.90;;;;;;4996751;28;20460;-83
2023/03/05 04:45:50;;;;;;;3.45;0.45;;;4.00;99.90;;;;;;4999937;28;20057;-85
2023/03/05 04:48:17;;;;;;;8.50;0.80;;;2.10;99.90;;;;;;5000319;28;20064;-85
2023/03/05 04:50:43;;;;;;;2.85;0.50;;;3.20;99.90;;;;;;4999892;28;20081;-82
2023/03/05 04:53:08;;;;;;;3.38;0.35;;;2.30;99.90;;;;;;5002734;28;20041;-84
2023/03/05 04:55:34;;;;;;;7.28;0.88;;;4.20;99.90;;;;;;4987486;28;20264;-84
2023/03/05 04:58:01;;;;;;;8.55;0.55;;;2.30;99.90;;;;;;4996580;28;20054;-85
2023/03/05 05:00:27;;;;;;;2.72;0.90;;;2.40;99.90;;;;;;4987638;28;20095;-86
2023/03/05 05:02:52;;;;;;;6.30;0.70;;;3.60;99.90;;;;;;4986064;28;20053;-85
2023/03/05 05:05:25;;;;;;;3.60;0.73;;;2.30;99.90;;;;;;4999420;28;20482;-88
2023/03/05 05:07:55;;;;;;;5.78;0.52;;;3.70;99.90;;;;;;5009492;28;20505;-85
2023/03/05 05:10:24;;;;;;;6.70;0.40;;;4.20;99.90;;;;;;5003663;28;20394;-85
2023/03/05 05:12:49;;;;;;;3.83;0.20;;;4.10;99.90;;;;;;5015145;28;20057;-86
2023/03/05 05:15:15;;;;;;;6.72;1.23;;;2.70;99.90;;;;;;5023083;28;20137;-82
2023/03/05 05:17:41;;;;;;;4.47;0.93;;;2.30;99.90;;;;;;5010146;28;20061;-86
2023/03/05 05:20:09;;;;;;;2.33;0.47;;;3.40;99.90;;;;;;4996799;28;20088;-85
2023/03/05 05:22:35;;;;;;;4.82;0.70;;;2.40;99.90;;;;;;5003313;28;20081;-83
2023/03/05 05:25:01;;;;;;;2.33;0.35;;;3.90;99.90;;;;;;5023572;28;20088;-86
2023/03/05 05:27:27;;;;;;;8.00;0.50;;;2.40;99.90;;;;;;4983067;28;20084;-87
2023/03/05 05:29:54;;;;;;;5.47;0.52;;;2.40;99.90;;;;;;5000216;28;20054;-84
2023/03/05 05:32:22;;;;;;;5.28;0.50;;;2.40;99.90;;;;;;4986888;28;20091;-85
2023/03/05 05:34:52;;;;;;;7.38;0.90;;;2.70;99.90;;;;;;5002678;28;20572;-86
2023/03/05 05:37:21;;;;;;;3.70;0.60;;;2.00;99.90;;;;;;4984577;28;20038;-86
2023/03/05 05:39:49;;;;;;;5.20;0.70;;;4.20;99.90;;;;;;5008270;28;20097;-86
2023/03/05 05:42:21;;;;;;;7.97;0.40;;;4.40;99.90;;;;;;5019035;28;20050;-83
2023/03/05 05:44:46;;;;;;;3.88;0.40;;;4.20;99.90;;;;;;5003158;28;20103;-86
2023/03/05 05:47:13;;;;;;;4.00;0.47;;;3.50;99.90;;;;;;5000228;28;20527;-85
2023/03/05 05:49:39;;;;;;;3.72;0.50;;;2.30;99.90;;;;;;5005942;28;20046;-84
2023/03/05 05:52:05;;;;;;;5.30;0.85;;;2.80;99.90;;;;;;5017917;28;20492;-84
2023/03/05 05:54:31;;;;;;;5.72;0.30;;;2.50;99.90;;;;;;5013665;28;20041;-86
2023/03/05 05:56:56;;;;;;;7.10;0.50;;;4.50;99.90;;;;;;5020063;28;20136;-83
2023/03/05 05:59:22;;;;;;;3.65;0.57;;;1.90;99.90;;;;;;5023870;28;20105;-84
2023/03/05 06:01:51;;;;;;;5.93;0.75;;;4.20;99.90;;;;;;5024304;28;20064;-83
2023/03/05 06:04:18;;;;;;;4.25;0.75;;;3.80;99.90;;;;;;5022833;28;20133;-85
2023/03/05 06:06:43;;;;;;;4.47;0.50;;;2.10;99.90;;;;;;5023859;28;20038;-84
2023/03/05 06:09:09;;;;;;;6.53;0.50;;;2.20;99.90;;;;;;5021166;28;20055;-83
2023/03/05 06:11:36;;;;;;;3.25;0.30;;;3.90;99.90;;;;;;5020588;28;20536;-83
2023/03/05 06:14:02;;;;;;;2.60;0.40;;;3.00;99.90;;;;;;5024342;28;20049;-83
2023/03/05 06:16:28;;;;;;;6.53;0.82;;;2.20;99.90;;;;;;4999156;28;20471;-84
2023/03/05 06:18:54;;;;;;;5.65;0.93;;;2.10;99.90;;;;;;4995927;28;20192;-83
2023/03/05 06:21:21;;;;;;;4.20;0.82;;;1.80;99.90;;;;;;5006801;28;20042;-84
2023/03/05 06:23:48;;;;;;;6.13;0.82;;;3.90;99.90;;;;;;4998488;28;20061;-83
2023/03/05 06:26:18;;;;;;;6.00;0.60;;;2.10;99.90;;;;;;5008787;28;20133;-85
2023/03/05 06:28:44;;;;;;;5.18;0.60;;;2.20;99.90;;;;;;5023768;28;20504;-85
2023/03/05 06:31:16;;;;;;;3.17;0.55;;;3.90;99.90;;;;;;5015101;28;20054;-84
2023/03/05 06:33:43;;;;;;;7.00;0.80;;;2.20;99.90;;;;;;5002201;28;20049;-84
2023/03/05 06:36:12;;;;;;;4.47;0.93;;;3.20;99.90;;;;;;5016342;28;20487;-85
2023/03/05 06:38:39;;;;;;;7.07;1.27;;;4.60;99.90;;;;;;4994884;28;20050;-85
2023/03/05 06:41:10;;;;;;;6.07;0.70;;;1.70;99.90;;;;;;5020453;28;20095;-83
2023/03/05 06:43:38;;;;;;;4.80;0.60;;;3.60;99.90;;;;;;4984470;28;20123;-84
2023/03/05 06:46:07;;;;;;;3.17;0.90;;;1.80;99.90;;;;;;5000334;28;20527;-86
2023/03/05 06:48:33;;;;;;;8.35;0.80;;;2.10;99.90;;;;;;5005273;28;20124;-84
2023/03/05 06:51:05;;;;;;;3.97;0.52;;;3.90;99.90;;;;;;5012262;28;20049;-84
2023/03/05 06:53:31;;;;;;;3.78;0.70;;;2.10;99.90;;;;;;4998321;28;20128;-87
2023/03/05 06:56:00;;;;;;;6.68;1.35;;;4.00;99.90;;;;;;5016388;28;20041;-84
2023/03/05 06:58:26;;;;;;;3.92;0.43;;;1.90;99.90;;;;;;5005416;28;20111;-86
2023/03/05 07:00:52;;;;;;;2.55;0.32;;;3.40;99.90;;;;;;5032102;28;20281;-85
2023/03/05 07:03:18;;;;;;;5.75;0.70;;;3.40;99.90;;;;;;5001800;28;20060;-85
2023/03/05 07:05:43;;;;;;;3.53;0.70;;;3.00;99.90;;;;;;5001536;28;20049;-87
2023/03/05 07:08:09;;;;;;;5.30;0.77;;;2.10;99.90;;;;;;5001366;28;20049;-86
2023/03/05 07:10:42;;;;;;;5.75;0.93;;;3.80;99.90;;;;;;5005054;28;20578;-83
2023/03/05 07:13:10;;;;;;;4.57;0.63;;;3.40;99.90;;;;;;5038401;28;20052;-86
2023/03/05 07:15:42;;;;;;;5.45;2.22;;;4.10;99.90;;;;;;5004036;28;20050;-84
2023/03/05 07:18:08;;;;;;;16.02;3.70;;;2.60;99.90;;;;;;5000458;28;20056;-86
2023/03/05 07:20:35;;;;;;;9.77;2.08;;;2.10;99.90;;;;;;5011361;28;20049;-86
2023/03/05 07:23:02;;;;;;;8.27;1.13;;;1.90;99.90;;;;;;5023160;28;20541;-85
2023/03/05 07:25:28;;;;;;;4.97;0.75;;;2.40;99.90;;;;;;5007920;28;20075;-85
2023/03/05 07:27:54;;;;;;;7.20;1.73;;;4.30;99.90;;;;;;5001643;28;20493;-86
2023/03/05 07:30:22;;;;;;;11.85;0.90;;;3.90;99.90;;;;;;5010200;28;20132;-87
2023/03/05 07:35:23;;;;;;;9.02;1.58;;;2.30;99.90;;;;;;4640510;28;9999619;-82
2023/03/05 07:37:49;;;;;;;4.95;0.90;;;2.40;99.90;;;;;;4993565;28;20093;-81
2023/03/05 07:40:17;;;;;;;9.20;0.77;;;2.40;99.90;;;;;;4982725;28;20559;-81
2023/03/05 07:42:44;;;;;;;7.18;2.00;;;2.40;99.90;;;;;;4981867;28;20050;-82
2023/03/05 07:45:12;;;;;;;4.57;0.50;;;2.50;99.90;;;;;;4975157;28;20050;-81
2023/03/05 07:47:37;;;;;;;7.72;1.17;;;2.50;99.90;;;;;;4979746;28;20125;-82
2023/03/05 07:50:07;;;;;;;13.85;3.92;;;2.60;99.90;;;;;;4984181;28;20456;-82
2023/03/05 07:52:32;;;;;;;7.07;1.08;;;2.60;99.90;;;;;;4975385;28;20145;-81
2023/03/05 07:54:58;;;;;;;6.43;1.13;;;3.60;99.90;;;;;;4998201;28;20509;-80
2023/03/05 07:57:25;;;;;;;10.18;0.90;;;2.60;99.90;;;;;;4973093;28;20578;-82
2023/03/05 07:59:50;;;;;;;9.10;1.10;;;3.30;99.90;;;;;;4998822;28;20046;-82
2023/03/05 08:02:18;;;;;;;4.03;0.90;;;2.70;99.90;;;;;;4974553;28;20058;-82
2023/03/05 08:04:44;;;;;;;10.65;1.05;;;3.90;99.90;;;;;;4977119;28;20042;-82
2023/03/05 08:07:12;;;;;;;5.68;0.90;;;5.10;99.90;;;;;;4987745;28;20517;-82
2023/03/05 08:09:38;;;;;;;5.15;0.80;;;2.90;99.90;;;;;;4990662;28;20096;-81
2023/03/05 08:12:04;;;;;;;8.10;1.52;;;4.30;99.90;;;;;;4983015;28;20058;-82
2023/03/05 08:14:30;;;;;;;6.78;1.30;;;2.90;99.90;;;;;;4984005;28;20117;-82
2023/03/05 08:16:59;;;;;;;13.95;6.43;;;3.00;99.90;;;;;;4980755;28;20046;-82
2023/03/05 08:19:25;;;;;;;8.38;1.75;;;4.50;99.90;;;;;;4998783;28;20137;-82
2023/03/05 08:21:50;;;;;;;10.85;2.75;;;3.20;99.90;;;;;;4985309;28;20053;-82
2023/03/05 08:24:16;;;;;;;7.97;0.90;;;;;;;;;;4980735;28;20058;-82
2023/03/05 08:26:42;;;;;;;9.77;1.50;;;3.10;99.90;;;;;;4962635;28;20043;-82
2023/03/05 08:29:09;;;;;;;6.65;0.93;;;4.30;99.90;;;;;;4971049;28;20111;-82
2023/03/05 08:31:37;;;;;;;8.38;1.00;;;3.10;99.90;;;;;;4978602;28;20046;-82
2023/03/05 08:34:04;;;;;;;12.35;1.25;;;3.50;99.90;;;;;;4967347;28;20054;-82
2023/03/05 08:36:29;;;;;;;15.25;2.42;;;5.30;99.90;;;;;;4979829;28;20513;-82
2023/03/05 08:38:55;;;;;;;10.50;1.10;;;5.20;99.90;;;;;;4964218;28;20046;-82
2023/03/05 08:41:22;;;;;;;5.88;1.27;;;3.70;99.90;;;;;;4963877;28;20120;-81
2023/03/05 08:43:47;;;;;;;7.20;1.25;;;3.30;99.90;;;;;;4975596;28;20497;-82
2023/03/05 08:46:14;;;;;;;10.68;0.90;;;3.40;99.90;;;;;;4959585;28;20115;-82
2023/03/05 08:48:43;;;;;;;7.57;0.77;;;3.40;99.90;;;;;;4971587;28;20042;-82
2023/03/05 08:51:12;;;;;;;5.55;0.73;;;4.40;99.90;;;;;;4983362;28;20106;-82
2023/03/05 08:53:42;;;;;;;10.85;0.88;;;3.60;99.90;;;;;;4976344;28;20042;-83
2023/03/05 08:56:08;;;;;;;5.50;1.02;;;2.40;99.90;;;;;;4971507;28;20132;-82
2023/03/05 08:58:34;;;;;;;8.95;1.02;;;3.80;99.90;;;;;;4988802;28;20112;-82
2023/03/05 09:01:00;;;;;;;6.82;1.08;;;4.00;99.90;;;;;;4973343;28;20114;-83
2023/03/05 09:03:26;;;;;;;9.75;1.80;;;3.60;99.90;;;;;;4990962;28;20053;-81
2023/03/05 09:05:53;;;;;;;8.18;1.20;;;5.50;99.90;;;;;;4976933;28;20589;-82
2023/03/05 09:08:18;;;;;;;4.70;0.57;;;4.00;99.90;;;;;;4971843;28;20053;-82
2023/03/05 09:10:45;;;;;;;6.68;1.38;;;4.10;99.90;;;;;;4977838;28;20062;-82
2023/03/05 09:13:11;;;;;;;13.65;1.73;;;4.10;99.90;;;;;;4993137;28;20050;-82
2023/03/05 09:15:39;;;;;;;13.60;3.58;;;5.80;99.90;;;;;;4996857;28;20534;-82
2023/03/05 09:18:07;;;;;;;8.82;1.50;;;4.20;99.90;;;;;;4999232;28;20489;-82
2023/03/05 09:20:34;;;;;;;7.68;0.90;;;4.30;99.90;;;;;;4958441;28;20084;-82
2023/03/05 09:23:00;;;;;;;8.80;1.02;;;4.40;99.90;;;;;;4966120;28;20057;-82
2023/03/05 09:25:25;;;;;;;5.47;0.98;;;5.80;99.90;;;;;;4996559;28;20113;-82
2023/03/05 09:27:51;;;;;;;7.78;0.55;;;4.50;99.90;;;;;;4995349;28;20387;-82
2023/03/05 09:30:17;;;;;;;7.53;1.30;;;4.50;99.90;;;;;;4979968;28;20046;-82
2023/03/05 09:32:43;;;;;;;6.07;0.70;;;4.60;99.90;;;;;;4987446;28;20058;-82
2023/03/05 09:35:09;;;;;;;3.72;0.38;;;4.30;99.90;;;;;;4991741;28;20452;-82
2023/03/05 09:37:35;;;;;;;4.97;0.40;;;4.50;99.90;;;;;;4991357;28;20137;-82
2023/03/05 09:40:01;;;;;;;3.33;0.60;;;4.40;99.90;;;;;;4973856;28;20125;-82
2023/03/05 09:42:52;;;;;;;3.83;0.82;;;4.30;99.90;;;;;;4979236;28;20072;-82
2023/03/05 09:45:18;;;;;;;10.05;0.73;;;4.30;99.90;;;;;;4983868;28;20147;-82
2023/03/05 09:47:59;;;;;;;3.38;0.32;;;5.20;99.90;;;;;;4963457;28;20477;-82
2023/03/05 09:50:49;;;;;;;8.02;0.68;;;5.40;99.90;;;;;;4997117;28;20054;-83
2023/03/05 09:53:23;;;;;;;5.38;0.82;;;4.30;99.90;;;;;;4996915;28;20140;-83
2023/03/05 09:55:53;;;;;;;;;;;4.30;99.90;;;;;;5001517;28;20174;-83
2023/03/05 09:58:32;;;;;;;6.97;0.95;;;4.30;99.90;;;;;;4973840;28;19944;-83
2023/03/05 10:01:33;;;;;;;6.70;1.08;;;4.30;99.90;;;;;;4975342;28;20140;-83
2023/03/05 10:04:10;;;;;;;5.70;0.75;;;4.30;99.90;;;;;;4946518;28;20058;-83
2023/03/05 10:06:42;;;;;;;12.07;1.65;;;4.30;99.90;;;;;;4996725;28;20578;-83
2023/03/05 10:09:10;;;;;;;6.25;0.47;;;4.30;99.90;;;;;;4995607;28;20115;-82
2023/03/05 10:12:06;;;;;;;6.25;0.57;;;4.30;99.90;;;;;;4992215;28;20470;-82
2023/03/05 10:14:35;;;;;;;5.30;0.80;;;4.40;99.90;;;;;;4980468;28;20117;-82
2023/03/05 10:17:11;;;;;;;8.60;1.63;;;4.40;99.90;;;;;;4977300;28;20043;-82
2023/03/05 10:20:03;;;;;;;14.68;1.27;;;4.50;99.90;;;;;;4956548;28;20060;-84
2023/03/05 10:23:14;;;;;;;30.25;2.47;;;4.70;99.90;;;;;;4974783;28;20133;-78
2023/03/05 10:25:54;;;;;;;16.15;2.13;;;5.00;99.90;;;;;;4986241;28;20050;-82
2023/03/05 10:29:07;;;;;;;29.42;1.88;;;5.20;99.90;;;;;;4971703;28;20050;-85
2023/03/05 10:32:04;;;;;;;98.70;8.52;;;5.40;99.90;;;;;;4975131;28;20482;-80
2023/03/05 10:35:11;;;;;;;6.25;1.10;;;5.60;99.90;;;;;;4972751;28;20081;-84
2023/03/05 10:37:40;;;;;;;5.45;0.57;;;5.60;99.90;;;;;;4969632;28;20046;-82
2023/03/05 10:40:44;;;;;;;7.75;1.23;;;5.70;99.90;;;;;;4992096;28;20413;-81
2023/03/05 10:43:39;;;;;;;5.57;1.23;;;5.70;99.90;;;;;;4973484;28;20038;-81
2023/03/05 10:46:11;;;;;;;2.90;1.38;;;7.00;99.90;;;;;;4974139;28;20052;-81
2023/03/05 10:48:43;;;;;;;3.97;0.63;;;5.80;99.90;;;;;;4997213;28;20120;-81
2023/03/05 10:51:18;;;;;;;3.90;0.75;;;7.00;99.90;;;;;;4966167;28;20042;-82
2023/03/05 10:53:58;;;;;;;2.55;0.43;;;7.50;99.90;;;;;;4992649;28;20050;-81
2023/03/05 10:56:26;;;;;;;4.95;0.45;;;6.20;99.90;;;;;;4964078;28;20054;-81
2023/03/05 10:58:52;;;;;;;4.82;0.40;;;7.20;99.90;;;;;;4991343;28;20050;-81
2023/03/05 11:01:30;;;;;;;4.78;0.47;;;7.00;99.90;;;;;;4982994;28;20057;-80
2023/03/05 11:04:04;;;;;;;3.17;0.20;;;5.80;99.90;;;;;;4966380;28;20046;-81
2023/03/05 11:06:40;;;;;;;7.25;0.40;;;4.70;99.90;;;;;;4965266;28;20047;-81
2023/03/05 11:09:28;;;;;;;4.55;0.68;;;5.90;99.90;;;;;;4984440;28;20061;-81
2023/03/05 11:12:16;;;;;;;3.75;0.25;;;5.80;99.90;;;;;;4979579;28;20072;-81
2023/03/05 11:15:02;;;;;;;4.00;0.40;;;5.90;99.90;;;;;;4632841;28;10000132;-81
2023/03/05 11:17:38;;;;;;;5.68;0.30;;;6.00;99.90;;;;;;4965233;28;20058;-81
2023/03/05 11:20:25;;;;;;;4.43;0.32;;;6.10;99.90;;;;;;4993655;28;20054;-82
2023/03/05 11:23:05;;;;;;;4.72;0.40;;;6.20;99.90;;;;;;4980023;28;20449;-82
2023/03/05 11:25:54;;;;;;;5.50;0.85;;;6.30;99.90;;;;;;4990634;28;20046;-81
2023/03/05 11:28:31;;;;;;;5.68;1.05;;;6.30;99.90;;;;;;4980542;28;20062;-81
2023/03/05 11:31:12;;;;;;;6.18;1.20;;;6.30;99.90;;;;;;4972218;28;20045;-81
2023/03/05 11:33:38;;;;;;;3.40;0.30;;;6.20;99.90;;;;;;4999915;28;20137;-81
2023/03/05 11:36:27;;;;;;;6.35;0.63;;;6.10;99.90;;;;;;5008005;28;20177;-80
2023/03/05 11:38:59;;;;;;;7.30;0.57;;;6.10;99.90;;;;;;4995508;28;20062;-81
2023/03/05 11:41:31;;;;;;;1.50;0.45;;;6.20;99.90;;;;;;4973027;28;20132;-80
2023/03/05 11:44:02;;;;;;;3.72;0.52;;;7.10;99.90;;;;;;4982572;28;20456;-80
2023/03/05 11:46:40;;;;;;;2.08;0.30;;;6.40;99.90;;;;;;4967224;28;20050;-81
2023/03/05 11:49:10;;;;;;;3.97;0.55;;;6.40;99.90;;;;;;4994594;28;20065;-81
2023/03/05 11:52:00;;;;;;;2.08;0.22;;;6.50;99.90;;;;;;4997151;28;20417;-81
2023/03/05 11:54:35;;;;;;;7.55;0.55;;;8.10;99.90;;;;;;5000288;28;20365;-81
2023/03/05 11:57:02;;;;;;;2.13;0.22;;;8.30;99.90;;;;;;4976953;28;20045;-81
2023/03/05 11:59:39;;;;;;;5.85;0.80;;;6.70;99.90;;;;;;4983014;28;20053;-80
2023/03/05 12:02:25;;;;;;;6.85;0.82;;;6.70;99.90;;;;;;4977359;28;20058;-81
2023/03/05 12:05:02;;;;;;;1.98;0.38;;;6.60;99.90;;;;;;4981773;28;20053;-81
2023/03/05 12:07:40;;;;;;;1.63;0.20;;;6.60;99.90;;;;;;4956123;28;20113;-81
2023/03/05 12:10:21;;;;;;;3.38;0.47;;;6.60;99.90;;;;;;4968323;28;20113;-79
2023/03/05 12:13:04;;;;;;;3.15;0.40;;;7.40;99.90;;;;;;4963436;28;20049;-79
2023/03/05 12:15:43;;;;;;;2.15;0.20;;;6.40;99.90;;;;;;4998445;28;20120;-80
2023/03/05 12:18:18;;;;;;;4.18;0.88;;;6.40;99.90;;;;;;4974131;28;20541;-81
2023/03/05 12:21:11;;;;;;;3.80;0.22;;;6.90;99.90;;;;;;4999824;28;20054;-79
2023/03/05 12:23:50;;;;;;;2.78;0.30;;;6.60;99.90;;;;;;4964153;28;20054;-81
2023/03/05 12:26:39;;;;;;;7.07;0.50;;;6.60;99.90;;;;;;4973082;28;20043;-81
2023/03/05 12:29:26;;;;;;;18.15;1.27;;;6.50;99.90;;;;;;4991707;28;20046;-81
2023/03/05 12:31:52;;;;;;;1.23;0.30;;;6.50;99.90;;;;;;4982818;28;20054;-81
2023/03/05 12:34:41;;;;;;;3.95;0.50;;;6.50;99.90;;;;;;4984322;28;20072;-81
2023/03/05 12:37:26;;;;;;;3.10;0.30;;;6.40;99.90;;;;;;4979903;28;20549;-81
2023/03/05 12:39:59;;;;;;;3.40;0.67;;;6.30;99.90;;;;;;5000479;28;20053;-81
2023/03/05 12:42:31;;;;;;;3.20;0.45;;;6.30;99.90;;;;;;4987631;28;20289;-81
2023/03/05 12:45:29;;;;;;;5.53;0.57;;;6.50;99.90;;;;;;4965853;28;20057;-80
2023/03/05 12:47:54;;;;;;;4.82;0.40;;;6.20;99.90;;;;;;4983211;28;20112;-81
2023/03/05 12:50:43;;;;;;;4.55;0.70;;;6.20;99.90;;;;;;5000019;28;20513;-81
2023/03/05 12:53:13;;;;;;;4.45;0.85;;;7.40;99.90;;;;;;4990181;28;20576;-81
2023/03/05 12:55:45;;;;;;;3.00;0.40;;;6.10;99.90;;;;;;4981258;28;20097;-82
2023/03/05 12:58:44;;;;;;;8.23;0.63;;;6.10;99.90;;;;;;4971764;28;20108;-81
2023/03/05 13:01:30;;;;;;;2.88;0.43;;;6.20;99.90;;;;;;4990067;28;20077;-82
2023/03/05 13:04:09;;;;;;;2.03;0.20;;;6.30;99.90;;;;;;4999878;28;20125;-79
2023/03/05 13:06:36;;;;;;;2.70;0.45;;;6.40;99.90;;;;;;4996566;28;20050;-80
2023/03/05 13:09:14;;;;;;;3.28;0.30;;;6.40;99.90;;;;;;4982561;28;20046;-81
2023/03/05 13:11:41;;;;;;;2.88;0.47;;;6.30;99.90;;;;;;4986384;28;20046;-81
2023/03/05 13:14:28;;;;;;;6.18;1.02;;;5.90;99.90;;;;;;5017786;28;20118;-81
2023/03/05 13:16:54;;;;;;;4.45;0.30;;;6.20;99.90;;;;;;5000980;28;20061;-81
2023/03/05 13:19:20;;;;;;;3.35;0.40;;;7.00;99.90;;;;;;4983532;28;20054;-81
2023/03/05 13:22:03;;;;;;;3.67;0.20;;;7.30;99.90;;;;;;4983208;28;20615;-81